Mackay Mo, Queensland

7:53 AM AEST on October 21, 2014 (GMT +1000)
Mount Bassett | Change Station
CLOSE
Current Station
Personal Weather Station
Location: Mackay, QLD
Elevation: 69 ft
Nearby Weather Stations

Elev 69 ft 21.12 °S, 149.22 °E | Updated 3 minutes ago

Scattered Clouds
Scattered Clouds
72.7 °F
Feels Like 73 °F
N
12.0
Wind Variable Wind from SSE
Gusts 19.0 mph

Today
High -- | Low -- °F
--% Chance of Precip.
Yesterday
High -- | Low -- °F
Precip. -- in
5:27 AM 6:08 PM
Waning Crescent, 9% visible
Pressure 30.15 in
Visibility 6.2 miles
Clouds Scattered Clouds 5000 ft
Heat Index 73 °F
Dew Point 66 °F
Humidity 78%
Rainfall 0.00 in
Snow Depth Not available.
UV 2 out of 12
Pollen Not available.
Air Quality Not available.
Flu Activity Not available.
METAR YBHM 202130Z AUTO 12020KT 9999 // SCT050 24/14 Q1021

More Conditions Fewer Conditions

Pressure 30.15 in
Visibility 6.2 miles
Clouds Scattered Clouds 5000 ft
Heat Index 73 °F
Dew Point 66 °F
Humidity 78%
Rainfall 0.00 in
Snow Depth Not available.
UV 2 out of 12
Pollen Not available.
Air Quality Not available.
Flu Activity Not available.
METAR YBHM 202130Z AUTO 12020KT 9999 // SCT050 24/14 Q1021

More Conditions Fewer Conditions

10-Day Weather Forecast

Almanac

Astronomy

Oct. 21, 2014 Rise Set
Actual Time 5:27 AM AEST 6:08 PM AEST
Civil Twilight 5:05 AM AEST 6:30 PM AEST
Nautical Twilight 4:38 AM AEST 6:57 PM AEST
Astronomical Twilight 4:11 AM AEST 7:24 PM AEST
Moon 3:32 AM AEST (10/21) 3:52 PM AEST (10/21)
Length of Visible Light 13h 25m
Length of Day
12h 40m
Tomorrow will be 1m 9s longer.
Waning Crescent, 9% of the Moon is Illuminated
Oct 20
Waning Crescent
Oct 23
New
Oct 30
First Quarter
Nov 6
Full
Nov 14
Last Quarter

Yesterday's Extremes

Country Highs Country Lows

Community

WunderPhotos

Upload Photos

1,763,527 photos uploaded!

WunderBlogs® & News

Nearby

Snow Depth

Not available.

Earthquake Activity

City Distance Mag. Time & Date
No recent earthquake activity has been reported nearby.
Minimum magnitude displayed is 2.5.

Coastal Water Temperatures

Place Temperature
No Stations Reporting

Nearby Weather Stations